createdAt,value
2022-08-24T00:01:56.527Z,49.85
2022-08-24T00:04:24.919Z,40.47
2022-08-24T00:06:53.603Z,45.07
2022-08-24T00:09:22.293Z,38.13
2022-08-24T00:11:51.691Z,39.03
2022-08-24T00:14:19.884Z,43.92
2022-08-24T00:16:48.037Z,44.28
2022-08-24T00:19:16.228Z,40.67
2022-08-24T00:21:45.047Z,37.70
2022-08-24T00:24:13.104Z,39.15
2022-08-24T00:26:41.209Z,46.03
2022-08-24T00:29:10.676Z,42.13
2022-08-24T00:34:06.857Z,37.42
2022-08-24T00:36:35.236Z,43.25
2022-08-24T00:39:04.244Z,40.85
2022-08-24T00:41:32.885Z,47.70
2022-08-24T00:44:04.435Z,49.87
2022-08-24T00:46:41.970Z,44.28
2022-08-24T00:49:14.696Z,45.72
2022-08-24T00:51:56.301Z,48.47
2022-08-24T00:54:27.897Z,47.65
2022-08-24T00:57:00.477Z,46.45
2022-08-24T00:59:33.669Z,47.92
2022-08-24T01:02:15.156Z,49.58
2022-08-24T01:04:53.173Z,55.53
2022-08-24T01:07:23.833Z,53.67
2022-08-24T01:09:53.265Z,52.88
2022-08-24T01:12:22.318Z,51.00
2022-08-24T01:14:50.814Z,58.85
2022-08-24T01:17:39.047Z,49.35
2022-08-24T01:23:00.737Z,51.13
2022-08-24T01:25:31.912Z,51.22
2022-08-24T01:28:05.497Z,58.97
2022-08-24T01:30:36.186Z,56.08
2022-08-24T01:33:07.565Z,60.22
2022-08-24T01:35:37.292Z,59.90
2022-08-24T01:38:09.717Z,53.25
2022-08-24T01:40:43.894Z,52.70
2022-08-24T01:43:13.606Z,58.58
2022-08-24T01:45:42.077Z,54.40
2022-08-24T01:48:10.144Z,57.75
2022-08-24T01:50:38.380Z,55.70
2022-08-24T01:53:07.801Z,62.97
2022-08-24T01:55:36.158Z,65.13
2022-08-24T01:58:06.311Z,60.47
2022-08-24T02:00:36.596Z,58.08
2022-08-24T02:03:05.256Z,62.45
2022-08-24T02:05:34.480Z,61.45
2022-08-24T02:08:02.777Z,67.13
2022-08-24T02:10:31.659Z,64.65
2022-08-24T02:13:00.287Z,58.03
2022-08-24T02:15:33.522Z,58.55
2022-08-24T02:18:01.955Z,58.95
2022-08-24T02:20:30.411Z,62.63
2022-08-24T02:22:58.717Z,59.13
2022-08-24T02:25:30.391Z,67.70
2022-08-24T02:27:59.538Z,56.05
2022-08-24T02:30:29.135Z,57.20
2022-08-24T02:35:28.351Z,58.67
2022-08-24T02:37:56.487Z,62.90
2022-08-24T02:40:25.359Z,69.47
2022-08-24T02:42:53.954Z,69.05
2022-08-24T02:45:23.885Z,63.63
2022-08-24T02:47:53.731Z,69.20
2022-08-24T02:50:23.562Z,72.82
2022-08-24T02:52:51.590Z,71.70
2022-08-24T02:55:20.604Z,62.85
2022-08-24T02:57:50.506Z,73.68
2022-08-24T03:00:21.546Z,70.05
2022-08-24T03:02:50.655Z,76.82
2022-08-24T03:05:19.881Z,61.80
2022-08-24T03:07:49.465Z,69.70
2022-08-24T03:10:21.082Z,68.78
2022-08-24T03:12:49.685Z,84.63
2022-08-24T03:15:22.400Z,95.18
2022-08-24T03:17:50.807Z,76.00
2022-08-24T03:20:21.020Z,65.65
2022-08-24T03:22:50.481Z,68.82
2022-08-24T03:25:20.545Z,63.88
2022-08-24T03:30:18.670Z,58.75
2022-08-24T03:32:46.725Z,74.68
2022-08-24T03:35:15.796Z,81.43
2022-08-24T03:37:44.582Z,71.75
2022-08-24T03:40:23.137Z,75.68
2022-08-24T03:42:53.477Z,79.50
2022-08-24T03:45:22.820Z,68.10
2022-08-24T03:47:51.152Z,69.90
2022-08-24T03:50:20.813Z,65.80
2022-08-24T03:52:49.292Z,71.82
2022-08-24T03:55:19.130Z,77.47
2022-08-24T03:57:47.175Z,69.53
2022-08-24T04:00:15.789Z,71.00
2022-08-24T04:02:44.368Z,65.07
2022-08-24T04:05:13.265Z,74.03
2022-08-24T04:07:41.325Z,72.72
2022-08-24T04:10:11.361Z,74.18
2022-08-24T04:12:41.141Z,72.32
2022-08-24T04:15:10.198Z,85.65
2022-08-24T04:17:38.226Z,71.03
2022-08-24T04:20:07.584Z,80.10
2022-08-24T04:22:36.379Z,163.43
2022-08-24T04:25:09.251Z,71.43
2022-08-24T04:27:37.967Z,92.20
2022-08-24T04:30:08.753Z,96.32
2022-08-24T04:32:36.988Z,75.40
2022-08-24T04:35:06.379Z,71.78
2022-08-24T04:37:34.422Z,74.32
2022-08-24T04:40:03.105Z,70.53
2022-08-24T04:42:32.184Z,65.47
2022-08-24T04:45:01.765Z,71.43
2022-08-24T04:47:32.517Z,68.03
2022-08-24T04:50:00.556Z,69.93
2022-08-24T04:52:30.158Z,70.80
2022-08-24T04:54:58.217Z,185.07
2022-08-24T04:57:26.297Z,95.72
2022-08-24T04:59:57.500Z,101.15
2022-08-24T05:02:25.671Z,78.00
2022-08-24T05:04:56.984Z,96.20
2022-08-24T05:07:25.615Z,83.10
2022-08-24T05:09:53.668Z,88.10
2022-08-24T05:12:21.903Z,75.28
2022-08-24T05:14:50.144Z,73.15
2022-08-24T05:17:18.195Z,71.57
2022-08-24T05:19:46.276Z,80.13
2022-08-24T05:22:15.644Z,66.25
2022-08-24T05:24:43.710Z,78.35
2022-08-24T05:27:14.239Z,70.15
2022-08-24T05:29:42.685Z,69.63
2022-08-24T05:32:11.214Z,68.00
2022-08-24T05:34:39.275Z,68.97
2022-08-24T05:37:07.453Z,65.72
2022-08-24T05:39:36.868Z,65.55
2022-08-24T05:42:05.695Z,64.93
2022-08-24T05:44:33.721Z,57.72
2022-08-24T05:47:02.866Z,61.28
2022-08-24T05:49:31.068Z,55.97
2022-08-24T05:51:59.660Z,52.78
2022-08-24T05:54:27.849Z,49.23
2022-08-24T05:57:01.980Z,43.97
2022-08-24T05:59:30.019Z,45.83
2022-08-24T06:01:58.277Z,49.88
2022-08-24T06:04:28.101Z,47.63
2022-08-24T06:06:56.277Z,40.45
2022-08-24T06:09:24.334Z,42.33
2022-08-24T06:11:52.587Z,42.28
2022-08-24T06:14:26.769Z,41.00
2022-08-24T06:16:55.396Z,37.30
2022-08-24T06:19:24.655Z,36.03
2022-08-24T06:21:54.099Z,36.33
2022-08-24T06:27:22.413Z,37.08
2022-08-24T06:29:54.650Z,37.55
2022-08-24T06:32:23.184Z,37.60
2022-08-24T06:34:51.536Z,35.92
2022-08-24T06:37:19.565Z,36.67
2022-08-24T06:39:48.350Z,36.90
2022-08-24T06:42:25.584Z,35.08
2022-08-24T06:44:55.010Z,35.30
2022-08-24T06:47:24.365Z,33.15
2022-08-24T06:49:52.565Z,35.03
2022-08-24T06:52:20.651Z,33.70
2022-08-24T06:54:48.913Z,31.63
2022-08-24T06:57:17.032Z,28.48
2022-08-24T06:59:45.979Z,28.55
2022-08-24T07:02:16.281Z,26.55
2022-08-24T07:04:44.365Z,28.67
2022-08-24T07:07:12.780Z,29.02
2022-08-24T07:09:40.877Z,28.08
2022-08-24T07:12:09.383Z,25.10
2022-08-24T07:14:37.550Z,27.27
2022-08-24T07:17:06.088Z,25.98
2022-08-24T07:19:35.559Z,26.90
2022-08-24T07:24:32.281Z,23.77
2022-08-24T07:27:00.413Z,25.67
2022-08-24T07:29:47.286Z,26.42
2022-08-24T07:32:16.712Z,24.77
2022-08-24T07:34:46.244Z,28.92
2022-08-24T07:39:42.711Z,24.60
2022-08-24T07:42:14.063Z,28.33
2022-08-24T07:44:44.180Z,25.00
2022-08-24T07:47:36.990Z,24.40
2022-08-24T07:50:02.355Z,26.50
2022-08-24T07:52:31.265Z,26.67
2022-08-24T07:54:59.709Z,23.35
2022-08-24T07:57:28.043Z,26.55
2022-08-24T07:59:56.323Z,23.98
2022-08-24T08:02:26.966Z,26.08
2022-08-24T08:04:58.915Z,22.67
2022-08-24T08:07:28.662Z,24.77
2022-08-24T08:09:56.846Z,24.83
2022-08-24T08:12:25.130Z,26.98
2022-08-24T08:14:53.308Z,24.05
2022-08-24T08:17:21.375Z,25.08
2022-08-24T08:19:49.501Z,24.70
2022-08-24T08:22:35.186Z,25.95
2022-08-24T08:25:05.412Z,32.60
2022-08-24T08:27:34.888Z,30.02
2022-08-24T08:32:31.347Z,32.60
2022-08-24T08:35:02.087Z,36.50
2022-08-24T08:37:31.166Z,41.53
2022-08-24T08:39:59.694Z,43.95
2022-08-24T08:42:55.451Z,45.27
2022-08-24T08:45:36.004Z,43.13
2022-08-24T08:48:47.337Z,40.28
2022-08-24T08:51:46.836Z,34.83
2022-08-24T08:54:31.055Z,34.38
2022-08-24T08:57:19.572Z,34.60
2022-08-24T09:00:08.997Z,33.50
2022-08-24T09:03:05.161Z,33.55
2022-08-24T09:06:05.100Z,38.25
2022-08-24T09:09:01.218Z,41.97
2022-08-24T09:11:41.381Z,43.53
2022-08-24T09:14:32.692Z,38.58
2022-08-24T09:17:22.184Z,35.97
2022-08-24T09:20:06.788Z,32.42
2022-08-24T09:22:39.604Z,28.92
2022-08-24T09:25:26.605Z,25.65
2022-08-24T09:28:10.305Z,28.90
2022-08-24T09:30:57.589Z,23.42
2022-08-24T09:33:31.087Z,26.83
2022-08-24T09:36:08.862Z,20.98
2022-08-24T09:38:57.305Z,22.15
2022-08-24T09:41:52.561Z,20.70
2022-08-24T09:44:49.983Z,18.83
2022-08-24T09:47:52.623Z,19.27
2022-08-24T09:50:36.109Z,19.30
2022-08-24T09:53:40.604Z,17.98
2022-08-24T09:56:36.245Z,14.05
2022-08-24T09:59:21.495Z,13.15
2022-08-24T10:02:00.376Z,11.02
2022-08-24T10:04:33.956Z,10.43
2022-08-24T10:07:15.853Z,8.32
2022-08-24T10:10:03.301Z,9.32
2022-08-24T10:12:54.141Z,10.02
2022-08-24T10:15:29.989Z,10.30
2022-08-24T10:18:35.245Z,11.32
2022-08-24T10:21:27.448Z,11.85
2022-08-24T10:24:16.693Z,10.10
2022-08-24T10:29:43.024Z,10.32
2022-08-24T10:32:23.479Z,13.32
2022-08-24T10:35:03.120Z,10.68
2022-08-24T10:37:52.356Z,10.13
2022-08-24T10:43:28.657Z,11.05
2022-08-24T10:46:19.564Z,9.50
2022-08-24T10:49:13.410Z,10.02
2022-08-24T10:51:59.304Z,11.25
2022-08-24T10:54:27.887Z,12.70
2022-08-24T10:57:11.583Z,13.02
2022-08-24T10:59:50.555Z,12.48
2022-08-24T11:02:31.964Z,11.63
2022-08-24T11:05:01.566Z,10.30
2022-08-24T11:07:30.223Z,12.40
2022-08-24T11:10:01.843Z,9.52
2022-08-24T11:12:33.300Z,10.60
2022-08-24T11:15:05.047Z,11.10
2022-08-24T11:17:35.499Z,11.65
2022-08-24T11:20:03.995Z,10.48
2022-08-24T11:22:36.897Z,10.50
2022-08-24T11:25:14.522Z,11.80
2022-08-24T11:27:47.177Z,12.35
2022-08-24T11:30:24.625Z,12.55
2022-08-24T11:32:55.067Z,10.02
2022-08-24T11:35:26.716Z,10.10
2022-08-24T11:37:57.739Z,11.35
2022-08-24T11:40:30.075Z,9.82
2022-08-24T11:43:21.146Z,11.13
2022-08-24T11:46:02.546Z,11.93
2022-08-24T11:48:43.715Z,10.57
2022-08-24T11:51:18.445Z,12.10
2022-08-24T11:54:00.500Z,17.20
2022-08-24T11:56:34.331Z,13.85
2022-08-24T11:59:12.101Z,8.65
2022-08-24T12:01:46.975Z,10.40
2022-08-24T12:04:30.025Z,9.13
2022-08-24T12:07:05.997Z,9.70
2022-08-24T12:09:48.283Z,9.38
2022-08-24T12:12:22.524Z,9.25
2022-08-24T12:15:00.391Z,10.73
2022-08-24T12:17:35.400Z,8.98
2022-08-24T12:20:10.909Z,8.75
2022-08-24T12:22:41.011Z,9.38
2022-08-24T12:25:30.870Z,7.90
2022-08-24T12:27:59.719Z,9.05
2022-08-24T12:30:29.297Z,9.77
2022-08-24T12:33:02.510Z,9.05
2022-08-24T12:35:35.334Z,8.50
2022-08-24T12:38:09.958Z,8.65
2022-08-24T12:40:41.588Z,8.52
2022-08-24T12:43:13.417Z,9.65
2022-08-24T12:45:43.039Z,9.95
2022-08-24T12:48:21.466Z,11.35
2022-08-24T12:51:11.964Z,8.85
2022-08-24T12:54:01.717Z,7.45
2022-08-24T12:56:46.219Z,8.07
2022-08-24T12:59:21.400Z,7.95
2022-08-24T13:02:03.845Z,7.93
2022-08-24T13:04:37.506Z,6.85
2022-08-24T13:07:10.496Z,8.10
2022-08-24T13:09:42.396Z,7.20
2022-08-24T13:12:52.351Z,6.32
2022-08-24T13:15:26.229Z,6.95
2022-08-24T13:18:02.972Z,7.80
2022-08-24T13:20:55.744Z,6.45
2022-08-24T13:23:27.311Z,6.88
2022-08-24T13:25:59.543Z,6.50
2022-08-24T13:28:45.256Z,7.22
2022-08-24T13:31:26.787Z,7.40
2022-08-24T13:34:00.543Z,6.68
2022-08-24T13:36:45.569Z,6.30
2022-08-24T13:39:31.814Z,6.25
2022-08-24T13:42:23.005Z,7.15
2022-08-24T13:45:05.393Z,6.47
2022-08-24T13:47:48.053Z,6.88
2022-08-24T13:50:34.060Z,10.52
2022-08-24T13:53:17.774Z,7.53
2022-08-24T13:55:51.323Z,7.40
2022-08-24T13:58:33.828Z,7.43
2022-08-24T14:01:19.989Z,8.65
2022-08-24T14:04:12.927Z,12.00
2022-08-24T14:06:55.257Z,7.30
2022-08-24T14:09:37.922Z,6.60
2022-08-24T14:12:17.901Z,8.27
2022-08-24T14:15:03.088Z,9.07
2022-08-24T14:17:55.371Z,7.20
2022-08-24T14:20:55.086Z,7.20
2022-08-24T14:23:44.870Z,6.72
2022-08-24T14:26:50.989Z,6.97
2022-08-24T14:29:46.594Z,7.43
2022-08-24T14:32:45.947Z,7.55
2022-08-24T14:35:40.533Z,7.60
2022-08-24T14:38:33.335Z,7.30
2022-08-24T14:41:20.441Z,7.50
2022-08-24T14:44:09.482Z,7.35
2022-08-24T14:49:17.499Z,6.72
2022-08-24T14:52:00.279Z,7.80
2022-08-24T14:54:39.747Z,7.70
2022-08-24T14:57:43.183Z,7.05
2022-08-24T15:00:15.184Z,7.45
2022-08-24T15:03:23.680Z,8.45
2022-08-24T15:06:26.382Z,8.15
2022-08-24T15:09:08.443Z,7.10
2022-08-24T15:11:39.829Z,7.07
2022-08-24T15:14:15.168Z,7.15
2022-08-24T15:16:54.273Z,6.32
2022-08-24T15:19:31.421Z,8.10
2022-08-24T15:22:04.608Z,7.60
2022-08-24T15:24:41.277Z,9.38
2022-08-24T15:27:19.993Z,8.88
2022-08-24T15:29:53.724Z,9.90
2022-08-24T15:32:28.237Z,6.15
2022-08-24T15:34:59.155Z,8.20
2022-08-24T15:37:32.969Z,8.32
2022-08-24T15:40:02.134Z,7.50
2022-08-24T15:45:03.780Z,9.68
2022-08-24T15:47:34.594Z,9.50
2022-08-24T15:50:06.410Z,7.18
2022-08-24T15:52:43.021Z,9.15
2022-08-24T15:55:31.761Z,7.90
2022-08-24T15:58:28.003Z,8.07
2022-08-24T16:01:36.822Z,8.18
2022-08-24T16:04:06.767Z,7.53
2022-08-24T16:06:42.153Z,7.75
2022-08-24T16:09:35.237Z,8.77
2022-08-24T16:12:06.167Z,13.05
2022-08-24T16:14:37.157Z,10.43
2022-08-24T16:17:27.494Z,7.65
2022-08-24T16:19:59.539Z,7.38
2022-08-24T16:22:32.149Z,9.23
2022-08-24T16:25:25.589Z,8.48
2022-08-24T16:27:58.213Z,8.45
2022-08-24T16:30:38.363Z,8.48
2022-08-24T16:33:08.447Z,7.95
2022-08-24T16:35:36.481Z,9.18
2022-08-24T16:38:04.910Z,8.07
2022-08-24T16:40:34.561Z,9.32
2022-08-24T16:43:03.101Z,6.90
2022-08-24T16:45:35.741Z,7.93
2022-08-24T16:48:04.870Z,9.23
2022-08-24T16:50:34.462Z,15.77
2022-08-24T16:53:02.550Z,11.43
2022-08-24T16:55:30.669Z,9.93
2022-08-24T16:58:01.559Z,8.77
2022-08-24T17:00:30.106Z,12.15
2022-08-24T17:02:58.559Z,14.03
2022-08-24T17:05:27.595Z,18.63
2022-08-24T17:07:58.925Z,10.25
2022-08-24T17:10:27.572Z,10.70
2022-08-24T17:12:55.755Z,8.57
2022-08-24T17:15:24.746Z,7.93
2022-08-24T17:17:57.299Z,9.15
2022-08-24T17:20:25.917Z,9.85
2022-08-24T17:22:55.771Z,9.95
2022-08-24T17:25:24.375Z,9.85
2022-08-24T17:27:54.327Z,9.98
2022-08-24T17:30:23.731Z,9.48
2022-08-24T17:35:21.675Z,11.60
2022-08-24T17:40:22.517Z,11.55
2022-08-24T17:43:02.071Z,9.93
2022-08-24T17:45:30.350Z,9.30
2022-08-24T17:47:58.514Z,13.75
2022-08-24T17:50:28.370Z,10.48
2022-08-24T17:53:00.404Z,10.80
2022-08-24T17:55:30.231Z,10.32
2022-08-24T17:57:59.058Z,9.93
2022-08-24T18:00:27.211Z,10.63
2022-08-24T18:02:55.597Z,10.30
2022-08-24T18:05:24.046Z,11.80
2022-08-24T18:07:54.596Z,10.97
2022-08-24T18:10:25.858Z,10.35
2022-08-24T18:12:55.719Z,10.52
2022-08-24T18:15:34.689Z,16.60
2022-08-24T18:18:08.323Z,14.50
2022-08-24T18:20:41.394Z,13.40
2022-08-24T18:23:12.050Z,10.93
2022-08-24T18:25:45.156Z,11.68
2022-08-24T18:28:16.730Z,10.70
2022-08-24T18:30:46.274Z,11.27
2022-08-24T18:33:14.384Z,13.43
2022-08-24T18:35:42.547Z,14.77
2022-08-24T18:38:10.650Z,11.18
2022-08-24T18:40:39.299Z,12.38
2022-08-24T18:43:08.147Z,15.20
2022-08-24T18:45:37.679Z,10.88
2022-08-24T18:48:06.327Z,12.13
2022-08-24T18:50:37.746Z,12.77
2022-08-24T18:53:08.805Z,12.95
2022-08-24T18:55:38.630Z,14.77
2022-08-24T18:58:06.869Z,11.23
2022-08-24T19:00:37.420Z,19.35
2022-08-24T19:03:08.189Z,13.70
2022-08-24T19:05:36.412Z,14.02
2022-08-24T19:08:06.446Z,15.90
2022-08-24T19:10:37.541Z,12.77
2022-08-24T19:13:09.616Z,13.15
2022-08-24T19:15:40.181Z,11.75
2022-08-24T19:18:10.354Z,15.13
2022-08-24T19:20:42.396Z,16.65
2022-08-24T19:23:17.372Z,13.75
2022-08-24T19:25:46.565Z,11.48
2022-08-24T19:28:15.071Z,12.45
2022-08-24T19:30:46.730Z,18.17
2022-08-24T19:33:20.317Z,13.30
2022-08-24T19:35:48.375Z,11.73
2022-08-24T19:38:16.643Z,13.95
2022-08-24T19:40:48.072Z,12.85
2022-08-24T19:43:16.953Z,15.05
2022-08-24T19:46:03.878Z,15.25
2022-08-24T19:48:33.547Z,14.07
2022-08-24T19:51:03.715Z,13.57
2022-08-24T19:53:33.144Z,12.60
2022-08-24T19:58:32.020Z,16.80
2022-08-24T20:01:05.183Z,17.15
2022-08-24T20:03:33.453Z,13.73
2022-08-24T20:06:01.605Z,16.10
2022-08-24T20:08:29.691Z,15.98
2022-08-24T20:11:00.364Z,15.45
2022-08-24T20:13:28.843Z,18.38
2022-08-24T20:15:58.355Z,14.45
2022-08-24T20:18:32.654Z,15.88
2022-08-24T20:21:01.244Z,14.05
2022-08-24T20:23:30.079Z,13.37
2022-08-24T20:26:00.110Z,13.70
2022-08-24T20:28:37.988Z,15.57
2022-08-24T20:31:06.884Z,16.15
2022-08-24T20:33:36.491Z,13.63
2022-08-24T20:36:05.235Z,14.38
2022-08-24T20:38:34.128Z,16.02
2022-08-24T20:41:02.705Z,12.68
2022-08-24T20:43:30.713Z,9.80
2022-08-24T20:45:58.795Z,14.02
2022-08-24T20:48:30.236Z,12.70
2022-08-24T20:53:53.024Z,15.38
2022-08-24T20:56:30.675Z,11.68
2022-08-24T20:58:59.958Z,11.45
2022-08-24T21:01:28.040Z,18.70
2022-08-24T21:03:58.450Z,16.08
2022-08-24T21:06:32.408Z,15.73
2022-08-24T21:09:00.667Z,12.13
2022-08-24T21:11:28.700Z,15.00
2022-08-24T21:13:56.799Z,16.08
2022-08-24T21:16:24.934Z,14.38
2022-08-24T21:18:53.116Z,15.98
2022-08-24T21:21:21.190Z,15.18
2022-08-24T21:23:50.602Z,15.43
2022-08-24T21:28:49.894Z,17.50
2022-08-24T21:34:03.386Z,14.30
2022-08-24T21:36:32.119Z,14.68
2022-08-24T21:39:05.435Z,14.68
2022-08-24T21:41:36.702Z,13.57
2022-08-24T21:44:04.942Z,17.13
2022-08-24T21:46:35.277Z,14.05
2022-08-24T21:49:03.933Z,12.05
2022-08-24T21:51:32.000Z,13.07
2022-08-24T21:56:33.047Z,13.07
2022-08-24T21:59:01.486Z,15.15
2022-08-24T22:01:29.731Z,15.32
2022-08-24T22:03:59.184Z,14.05
2022-08-24T22:06:31.309Z,13.32
2022-08-24T22:09:00.808Z,13.20
2022-08-24T22:11:32.640Z,14.00
2022-08-24T22:14:02.206Z,19.10
2022-08-24T22:16:30.612Z,14.20
2022-08-24T22:19:00.725Z,18.00
2022-08-24T22:21:31.531Z,14.87
2022-08-24T22:24:04.801Z,14.02
2022-08-24T22:26:34.522Z,15.68
2022-08-24T22:29:03.588Z,15.30
2022-08-24T22:31:34.434Z,14.27
2022-08-24T22:34:05.149Z,14.48
2022-08-24T22:36:33.192Z,14.13
2022-08-24T22:39:01.812Z,14.57
2022-08-24T22:41:30.777Z,16.23
2022-08-24T22:44:20.033Z,15.82
2022-08-24T22:46:49.743Z,15.57
2022-08-24T22:49:19.024Z,16.67
2022-08-24T22:51:47.193Z,17.90
2022-08-24T22:54:15.653Z,16.25
2022-08-24T22:56:45.584Z,18.38
2022-08-24T22:59:18.137Z,15.13
2022-08-24T23:01:48.716Z,16.98
2022-08-24T23:04:19.949Z,15.00
2022-08-24T23:06:48.123Z,14.50
2022-08-24T23:09:16.573Z,14.13
2022-08-24T23:11:45.376Z,14.10
2022-08-24T23:14:14.649Z,14.98
2022-08-24T23:16:47.816Z,17.42
2022-08-24T23:19:34.404Z,16.90
2022-08-24T23:22:04.785Z,16.73
2022-08-24T23:24:34.020Z,17.42
2022-08-24T23:27:02.738Z,13.95
2022-08-24T23:29:31.083Z,16.20
2022-08-24T23:32:00.594Z,15.93
2022-08-24T23:36:56.553Z,15.55
2022-08-24T23:39:24.933Z,14.57
2022-08-24T23:41:53.528Z,16.45
2022-08-24T23:44:24.040Z,16.43
2022-08-24T23:46:53.681Z,17.65
2022-08-24T23:49:24.327Z,16.25
2022-08-24T23:51:53.121Z,18.85
2022-08-24T23:56:52.700Z,13.95
2022-08-24T23:59:23.809Z,17.13
